但馬空港の過去48時間の天気

但馬空港 (Tajima)

現在時刻: 9/23 07:47 JST (9/22 22:47 UTC) 以下の時間は現地時間です。

過去48時間のMETAR気象情報
時間 風向 風速(m/s) 視程 気温(℃) 湿度(%) 気圧(hPa) 天気現象
22 18:00 1 10km以上 23 100 1010
22 17:00 2 10km以上 24 94 1009
22 16:00 南南東 2 10km以上 24 94 1009
22 15:00 2 10km以上 23 100 1009
22 14:00 南南東 2 10km以上 23 100 1009 弱いしゅう雨
22 13:00 北東 2 10km以上 23 100 1009 弱いしゅう雨
22 12:00 4 10km以上 23 94 1009 弱いしゅう雨
22 11:00 2 10km以上 25 89 1010
22 10:00 北北東 2 10km以上 25 89 1010
22 09:00 2 10km以上 24 94 1009 周辺でしゅう雨
22 08:30 南南西 2 10km以上 24 89 1009 周辺でしゅう雨
21 18:00 4 10km以上 26 70 1009
21 17:00 4 10km以上 27 66 1009
21 16:00 4 10km以上 29 55 1009
21 15:00 南南東 5 10km以上 29 58 1009
21 14:00 南南東 5 10km以上 29 58 1010
21 13:00 南南東 4 10km以上 30 55 1010
21 12:00 4 10km以上 29 55 1011
21 11:00 5 10km以上 28 58 1011
21 10:00 5 10km以上 27 62 1012
21 09:00 5 10km以上 26 70 1013
21 08:30 南南東 4 10km以上 25 69 1013
RJBT 220900Z 35001KT 9999 FEW000 23/23 Q1010
RJBT 220800Z 17003KT 150V220 9999 FEW005 SCT/// 24/23 Q1009
RJBT 220700Z 15003KT 080V200 9999 FEW000 SCT/// 24/23 Q1009
RJBT 220600Z 18003KT 140V210 9999 FEW000 SCT010 BKN150 23/23 Q1009
RJBT 220500Z 15003KT 9999 -SHRA FEW000 SCT015 BKN080 23/23 Q1009
RJBT 220400Z 05004KT 9999 -SHRA FEW000 SCT015 BKN030 23/23 Q1009
RJBT 220300Z 35007KT 310V030 9999 -SHRA FEW000 SCT010 BKN020 23/22 Q1009
RJBT 220200Z 01004KT 330V050 9999 FEW007 SCT015 BKN035 25/23 Q1010
RJBT 220100Z 03003KT 330V110 9999 FEW003 SCT035 BKN060 25/23 Q1010
RJBT 220000Z 18003KT 140V210 9999 VCSH FEW000 SCT035 BKN060 24/23 Q1009
RJBT 212330Z 21004KT 9999 VCSH FEW000 SCT035 BKN060 24/22 Q1009
RJBT 210900Z 18008KT 9999 FEW030 26/20 Q1009
RJBT 210800Z 17008KT 140V210 9999 FEW035 27/20 Q1009
RJBT 210700Z 18008KT 140V210 9999 FEW035 29/19 Q1009
RJBT 210600Z 16009KT 120V200 9999 FEW035 29/20 Q1009
RJBT 210500Z 16010KT 130V200 9999 FEW040 29/20 Q1010
RJBT 210400Z 15008KT 090V190 9999 FEW040 30/20 Q1010
RJBT 210300Z 18008KT 140V220 9999 FEW040 29/19 Q1011
RJBT 210200Z 17009KT 140V210 9999 FEW035 28/19 Q1011
RJBT 210100Z 17010KT 9999 FEW030 27/19 Q1012
RJBT 210000Z 18010KT 150V210 9999 FEW025 26/20 Q1013
RJBT 202330Z 16008KT 110V200 9999 FEW025 25/19 Q1013